createdAt,value
2024-04-23T00:00:29.456Z,23.63
2024-04-23T00:02:56.233Z,21.60
2024-04-23T00:05:22.971Z,23.95
2024-04-23T00:07:49.718Z,21.10
2024-04-23T00:10:16.527Z,21.08
2024-04-23T00:12:43.194Z,19.80
2024-04-23T00:15:09.840Z,22.77
2024-04-23T00:17:36.540Z,21.55
2024-04-23T00:20:03.604Z,21.25
2024-04-23T00:22:30.331Z,20.50
2024-04-23T00:24:57.204Z,19.90
2024-04-23T00:27:23.856Z,19.13
2024-04-23T00:29:50.481Z,22.70
2024-04-23T00:32:17.226Z,19.90
2024-04-23T00:34:43.991Z,20.17
2024-04-23T00:37:29.757Z,20.40
2024-04-23T00:39:56.397Z,20.23
2024-04-23T00:42:23.122Z,19.77
2024-04-23T00:44:58.460Z,19.30
2024-04-23T00:47:25.793Z,18.98
2024-04-23T00:49:52.962Z,21.13
2024-04-23T00:52:21.108Z,22.30
2024-04-23T00:54:50.112Z,22.83
2024-04-23T00:57:17.267Z,22.38
2024-04-23T01:18:56.538Z,18.17
2024-04-23T01:21:30.463Z,18.65
2024-04-23T01:24:04.584Z,18.25
2024-04-23T01:26:31.843Z,18.50
2024-04-23T01:28:59.035Z,21.90
2024-04-23T01:31:26.934Z,18.30
2024-04-23T01:33:55.935Z,20.67
2024-04-23T01:36:23.710Z,22.45
2024-04-23T01:38:51.266Z,22.45
2024-04-23T01:41:18.193Z,21.08
2024-04-23T01:43:45.804Z,20.40
2024-04-23T01:46:12.940Z,23.42
2024-04-23T01:48:39.858Z,17.50
2024-04-23T01:51:06.788Z,19.23
2024-04-23T01:53:33.403Z,17.13
2024-04-23T01:56:00.080Z,19.20
2024-04-23T01:58:26.920Z,19.73
2024-04-23T02:00:55.350Z,16.20
2024-04-23T02:03:23.031Z,16.10
2024-04-23T02:05:51.090Z,15.50
2024-04-23T02:08:17.909Z,18.27
2024-04-23T02:10:45.874Z,17.20
2024-04-23T02:13:12.623Z,15.95
2024-04-23T02:15:39.249Z,17.10
2024-04-23T02:18:06.262Z,14.65
2024-04-23T02:20:33.028Z,15.30
2024-04-23T02:22:59.671Z,14.10
2024-04-23T02:25:27.328Z,16.38
2024-04-23T02:27:54.199Z,16.13
2024-04-23T02:30:20.865Z,17.90
2024-04-23T02:32:47.759Z,14.47
2024-04-23T02:35:14.506Z,16.50
2024-04-23T02:37:41.259Z,14.95
2024-04-23T02:40:08.254Z,13.15
2024-04-23T02:42:34.923Z,13.68
2024-04-23T02:45:01.617Z,13.13
2024-04-23T02:47:28.294Z,14.68
2024-04-23T02:49:55.044Z,14.15
2024-04-23T02:52:21.737Z,15.23
2024-04-23T02:54:48.364Z,14.02
2024-04-23T02:57:15.020Z,14.17
2024-04-23T02:59:41.653Z,15.75
2024-04-23T03:02:11.407Z,14.73
2024-04-23T03:04:38.395Z,15.18
2024-04-23T03:07:05.111Z,14.38
2024-04-23T03:09:31.898Z,13.97
2024-04-23T03:11:58.540Z,16.38
2024-04-23T03:14:25.186Z,15.02
2024-04-23T03:16:52.162Z,14.57
2024-04-23T03:19:18.853Z,15.50
2024-04-23T03:22:05.886Z,17.27
2024-04-23T03:24:35.448Z,13.20
2024-04-23T03:27:02.493Z,13.85
2024-04-23T03:29:29.122Z,16.35
2024-04-23T03:32:03.519Z,16.63
2024-04-23T03:34:31.351Z,15.83
2024-04-23T03:36:58.698Z,14.82
2024-04-23T03:39:25.807Z,16.35
2024-04-23T03:41:59.767Z,17.20
2024-04-23T03:44:27.657Z,15.93
2024-04-23T03:46:57.260Z,16.23
2024-04-23T03:49:24.185Z,17.15
2024-04-23T03:51:50.935Z,17.98
2024-04-23T03:54:17.575Z,15.02
2024-04-23T03:56:44.242Z,14.38
2024-04-23T03:59:10.859Z,16.70
2024-04-23T04:01:37.647Z,18.15
2024-04-23T04:04:23.246Z,17.75
2024-04-23T04:06:49.957Z,18.35
2024-04-23T04:09:16.619Z,17.48
2024-04-23T04:11:43.472Z,17.97
2024-04-23T04:14:10.199Z,17.33
2024-04-23T04:16:36.968Z,18.23
2024-04-23T04:19:04.938Z,17.98
2024-04-23T04:21:31.629Z,17.67
2024-04-23T04:23:58.261Z,17.63
2024-04-23T04:26:24.894Z,17.48
2024-04-23T04:28:51.577Z,17.77
2024-04-23T04:31:18.211Z,20.23
2024-04-23T04:33:44.910Z,18.38
2024-04-23T04:36:11.605Z,20.63
2024-04-23T04:38:38.275Z,20.88
2024-04-23T04:41:05.197Z,19.17
2024-04-23T04:43:31.949Z,19.42
2024-04-23T04:45:58.786Z,22.23
2024-04-23T04:48:25.526Z,21.77
2024-04-23T04:50:52.240Z,19.90
2024-04-23T04:53:18.889Z,21.58
2024-04-23T04:55:45.555Z,19.95
2024-04-23T04:58:12.199Z,22.10
2024-04-23T05:00:41.120Z,23.10
2024-04-23T05:03:08.957Z,22.27
2024-04-23T05:05:35.746Z,22.60
2024-04-23T05:08:02.505Z,17.80
2024-04-23T05:10:29.373Z,22.58
2024-04-23T05:12:56.041Z,24.47
2024-04-23T05:15:22.705Z,20.95
2024-04-23T05:17:49.346Z,22.65
2024-04-23T05:20:16.120Z,23.90
2024-04-23T05:22:42.936Z,19.83
2024-04-23T05:25:09.811Z,20.03
2024-04-23T05:27:36.495Z,20.60
2024-04-23T05:30:03.632Z,20.08
2024-04-23T05:32:48.772Z,17.33
2024-04-23T05:35:15.662Z,21.98
2024-04-23T05:37:42.543Z,17.87
2024-04-23T05:40:09.827Z,21.77
2024-04-23T05:42:36.519Z,17.60
2024-04-23T05:45:03.287Z,19.42
2024-04-23T05:47:30.231Z,15.73
2024-04-23T05:50:34.475Z,16.50
2024-04-23T05:53:38.552Z,16.38
2024-04-23T05:56:05.295Z,16.75
2024-04-23T05:58:31.955Z,16.92
2024-04-23T06:01:00.167Z,16.33
2024-04-23T06:03:27.055Z,17.57
2024-04-23T06:05:53.797Z,14.75
2024-04-23T06:08:20.557Z,13.93
2024-04-23T06:10:47.438Z,14.90
2024-04-23T06:13:14.206Z,12.82
2024-04-23T06:15:40.830Z,13.50
2024-04-23T06:18:07.651Z,12.63
2024-04-23T06:20:34.583Z,10.93
2024-04-23T06:23:01.309Z,12.43
2024-04-23T06:25:28.029Z,10.55
2024-04-23T06:27:54.689Z,11.27
2024-04-23T06:30:21.484Z,11.52
2024-04-23T06:32:49.156Z,10.25
2024-04-23T06:35:17.120Z,10.50
2024-04-23T06:37:44.203Z,10.98
2024-04-23T06:40:12.068Z,9.30
2024-04-23T06:42:39.697Z,11.15
2024-04-23T06:45:06.991Z,9.75
2024-04-23T06:47:35.173Z,8.57
2024-04-23T06:50:02.417Z,8.98
2024-04-23T06:52:29.318Z,9.63
2024-04-23T06:54:56.138Z,9.20
2024-04-23T06:57:22.904Z,9.60
2024-04-23T06:59:49.670Z,9.18
2024-04-23T07:02:16.578Z,8.80
2024-04-23T07:04:43.376Z,7.90
2024-04-23T07:07:10.185Z,7.78
2024-04-23T07:09:36.951Z,9.88
2024-04-23T07:12:03.869Z,9.20
2024-04-23T07:14:30.610Z,7.90
2024-04-23T07:16:57.436Z,7.90
2024-04-23T07:19:24.169Z,7.75
2024-04-23T07:21:50.843Z,8.65
2024-04-23T07:24:17.527Z,8.77
2024-04-23T07:26:44.193Z,7.60
2024-04-23T07:29:11.000Z,8.63
2024-04-23T07:31:37.908Z,8.00
2024-04-23T07:34:04.859Z,7.50
2024-04-23T07:36:31.753Z,7.50
2024-04-23T07:38:58.520Z,7.10
2024-04-23T07:41:25.183Z,6.63
2024-04-23T07:43:52.036Z,7.22
2024-04-23T07:46:18.752Z,7.03
2024-04-23T07:48:45.570Z,7.15
2024-04-23T07:51:12.266Z,6.60
2024-04-23T07:53:38.943Z,6.87
2024-04-23T07:56:06.029Z,6.75
2024-04-23T07:58:32.845Z,6.65
2024-04-23T08:00:59.888Z,7.28
2024-04-23T08:03:26.673Z,7.63
2024-04-23T08:05:56.666Z,6.70
2024-04-23T08:08:23.450Z,6.45
2024-04-23T08:10:50.581Z,6.80
2024-04-23T08:13:17.409Z,7.20
2024-04-23T08:15:44.438Z,6.70
2024-04-23T08:18:11.900Z,6.37
2024-04-23T08:20:42.025Z,6.20
2024-04-23T08:23:09.994Z,6.93
2024-04-23T08:25:36.890Z,7.32
2024-04-23T08:28:03.664Z,6.97
2024-04-23T08:30:30.402Z,6.23
2024-04-23T08:32:57.401Z,7.43
2024-04-23T08:35:24.161Z,6.38
2024-04-23T08:37:50.997Z,6.70
2024-04-23T08:40:17.901Z,7.00
2024-04-23T08:42:47.399Z,6.70
2024-04-23T08:45:15.734Z,8.05
2024-04-23T08:47:43.517Z,6.47
2024-04-23T08:50:10.962Z,6.95
2024-04-23T08:52:38.854Z,6.70
2024-04-23T08:55:06.911Z,6.27
2024-04-23T08:57:35.728Z,6.93
2024-04-23T09:00:04.732Z,6.40
2024-04-23T09:02:36.884Z,7.00
2024-04-23T09:05:04.155Z,6.82
2024-04-23T09:07:34.815Z,6.83
2024-04-23T09:10:05.165Z,7.57
2024-04-23T09:12:32.582Z,5.97
2024-04-23T09:15:00.729Z,6.60
2024-04-23T09:17:28.827Z,6.70
2024-04-23T09:19:55.985Z,6.33
2024-04-23T09:22:22.810Z,6.43
2024-04-23T09:24:49.580Z,7.25
2024-04-23T09:27:16.392Z,7.63
2024-04-23T09:29:43.098Z,6.80
2024-04-23T09:32:10.562Z,7.00
2024-04-23T09:34:39.560Z,7.30
2024-04-23T09:37:19.321Z,6.00
2024-04-23T09:39:47.503Z,6.97
2024-04-23T09:42:35.484Z,7.60
2024-04-23T09:45:05.982Z,6.57
2024-04-23T09:47:32.755Z,7.00
2024-04-23T09:49:59.520Z,6.18
2024-04-23T09:52:33.918Z,6.85
2024-04-23T09:55:01.189Z,8.80
2024-04-23T09:57:27.945Z,7.33
2024-04-23T09:59:55.004Z,6.68
2024-04-23T10:02:28.769Z,6.50
2024-04-23T10:05:20.627Z,7.05
2024-04-23T10:07:52.901Z,6.32
2024-04-23T10:10:24.728Z,6.83
2024-04-23T10:12:54.481Z,6.55
2024-04-23T10:15:35.607Z,6.72
2024-04-23T10:18:09.814Z,7.15
2024-04-23T10:20:45.718Z,6.55
2024-04-23T10:23:19.145Z,7.17
2024-04-23T10:25:47.867Z,6.82
2024-04-23T10:28:15.662Z,9.27
2024-04-23T10:30:43.041Z,6.47
2024-04-23T10:33:11.820Z,6.35
2024-04-23T10:35:40.301Z,7.37
2024-04-23T10:38:08.774Z,6.82
2024-04-23T10:40:43.629Z,6.07
2024-04-23T10:43:18.109Z,6.10
2024-04-23T10:45:44.949Z,5.63
2024-04-23T10:48:12.030Z,6.63
2024-04-23T10:50:39.003Z,6.70
2024-04-23T10:53:06.309Z,7.32
2024-04-23T10:55:33.255Z,6.40
2024-04-23T10:57:59.945Z,6.60
2024-04-23T11:00:37.309Z,6.93
2024-04-23T11:03:31.762Z,6.88
2024-04-23T11:05:58.820Z,6.40
2024-04-23T11:08:27.826Z,6.03
2024-04-23T11:11:08.316Z,6.53
2024-04-23T11:13:40.037Z,6.60
2024-04-23T11:16:23.220Z,6.65
2024-04-23T11:18:54.422Z,6.55
2024-04-23T11:21:28.055Z,6.35
2024-04-23T11:23:55.380Z,8.18
2024-04-23T11:26:25.234Z,6.87
2024-04-23T11:28:52.296Z,6.75
2024-04-23T11:31:20.531Z,7.20
2024-04-23T11:33:49.849Z,7.40
2024-04-23T11:36:25.719Z,7.63
2024-04-23T11:38:55.664Z,7.27
2024-04-23T11:41:22.500Z,6.47
2024-04-23T11:43:49.370Z,7.50
2024-04-23T11:46:17.027Z,6.90
2024-04-23T11:48:44.658Z,6.80
2024-04-23T11:51:14.921Z,6.43
2024-04-23T11:53:41.942Z,7.00
2024-04-23T11:56:09.339Z,8.35
2024-04-23T11:58:41.495Z,6.20
2024-04-23T12:01:09.831Z,7.55
2024-04-23T12:03:37.079Z,7.33
2024-04-23T12:06:04.966Z,6.45
2024-04-23T12:08:32.010Z,6.68
2024-04-23T12:11:00.049Z,6.13
2024-04-23T12:13:28.772Z,6.78
2024-04-23T12:15:55.760Z,6.27
2024-04-23T12:18:22.592Z,5.93
2024-04-23T12:21:49.066Z,6.60
2024-04-23T12:24:21.200Z,7.03
2024-04-23T12:26:49.423Z,6.35
2024-04-23T12:29:16.242Z,6.10
2024-04-23T12:31:43.081Z,7.35
2024-04-23T12:34:09.884Z,7.45
2024-04-23T12:36:38.124Z,6.57
2024-04-23T12:39:12.169Z,7.20
2024-04-23T12:41:39.735Z,7.53
2024-04-23T12:44:16.448Z,6.28
2024-04-23T12:46:43.901Z,6.15
2024-04-23T12:49:11.010Z,6.18
2024-04-23T12:51:37.873Z,6.45
2024-04-23T12:54:10.194Z,6.40
2024-04-23T12:56:37.331Z,7.22
2024-04-23T12:59:06.995Z,7.43
2024-04-23T13:01:42.066Z,5.90
2024-04-23T13:04:12.411Z,5.93
2024-04-23T13:06:39.453Z,7.20
2024-04-23T13:09:06.684Z,7.40
2024-04-23T13:11:33.678Z,6.82
2024-04-23T13:14:00.747Z,6.85
2024-04-23T13:16:39.044Z,7.10
2024-04-23T13:19:13.024Z,6.70
2024-04-23T13:21:39.910Z,6.65
2024-04-23T13:24:06.755Z,6.40
2024-04-23T13:26:33.505Z,7.05
2024-04-23T13:29:01.220Z,6.38
2024-04-23T13:31:27.985Z,8.07
2024-04-23T13:33:54.763Z,6.45
2024-04-23T13:36:21.579Z,6.70
2024-04-23T13:38:48.300Z,6.75
2024-04-23T13:41:16.273Z,6.55
2024-04-23T13:43:43.193Z,6.57
2024-04-23T13:46:11.314Z,6.78
2024-04-23T13:48:38.123Z,7.10
2024-04-23T13:51:07.094Z,7.65
2024-04-23T13:53:34.616Z,7.43
2024-04-23T13:56:07.882Z,6.70
2024-04-23T13:58:34.892Z,7.85
2024-04-23T14:01:11.069Z,9.18
2024-04-23T14:03:38.655Z,6.30
2024-04-23T14:06:06.590Z,7.97
2024-04-23T14:08:34.626Z,6.60
2024-04-23T14:11:05.471Z,6.70
2024-04-23T14:13:35.964Z,6.97
2024-04-23T14:16:13.243Z,6.65
2024-04-23T14:18:42.099Z,7.07
2024-04-23T14:21:08.961Z,7.27
2024-04-23T14:23:36.307Z,6.82
2024-04-23T14:26:03.457Z,6.90
2024-04-23T14:28:34.716Z,6.35
2024-04-23T14:31:05.081Z,8.55
2024-04-23T14:33:32.387Z,6.73
2024-04-23T14:36:05.689Z,7.28
2024-04-23T14:38:32.734Z,6.70
2024-04-23T14:41:00.200Z,7.18
2024-04-23T14:43:27.280Z,6.78
2024-04-23T14:45:54.170Z,6.87
2024-04-23T14:48:20.983Z,6.60
2024-04-23T14:50:49.206Z,6.80
2024-04-23T14:53:19.641Z,6.40
2024-04-23T14:55:57.701Z,7.25
2024-04-23T14:58:24.595Z,6.93
2024-04-23T15:00:51.325Z,6.82
2024-04-23T15:03:19.130Z,7.28
2024-04-23T15:05:46.108Z,6.47
2024-04-23T15:08:13.613Z,7.13
2024-04-23T15:10:48.008Z,7.93
2024-04-23T15:13:15.763Z,6.90
2024-04-23T15:15:42.448Z,6.35
2024-04-23T15:18:09.227Z,7.22
2024-04-23T15:20:42.522Z,8.52
2024-04-23T15:23:09.398Z,8.03
2024-04-23T15:25:36.187Z,6.63
2024-04-23T15:28:02.940Z,7.75
2024-04-23T15:30:29.830Z,6.72
2024-04-23T15:32:57.295Z,7.75
2024-04-23T15:35:24.840Z,8.20
2024-04-23T15:37:51.842Z,6.88
2024-04-23T15:40:18.616Z,8.43
2024-04-23T15:42:45.314Z,7.45
2024-04-23T15:45:14.116Z,7.15
2024-04-23T15:47:41.354Z,9.37
2024-04-23T15:50:08.919Z,7.22
2024-04-23T15:52:35.809Z,7.03
2024-04-23T15:55:02.459Z,7.05
2024-04-23T15:57:29.241Z,7.75
2024-04-23T15:59:55.915Z,8.33
2024-04-23T16:02:23.170Z,6.32
2024-04-23T16:04:50.079Z,7.93
2024-04-23T16:07:16.926Z,6.45
2024-04-23T16:09:43.634Z,7.13
2024-04-23T16:12:10.686Z,8.27
2024-04-23T16:14:37.626Z,6.85
2024-04-23T16:17:04.618Z,7.07
2024-04-23T16:19:31.373Z,8.60
2024-04-23T16:21:58.119Z,7.03
2024-04-23T16:24:24.848Z,7.80
2024-04-23T16:26:51.811Z,7.35
2024-04-23T16:29:18.789Z,6.60
2024-04-23T16:31:45.678Z,7.97
2024-04-23T16:34:13.043Z,8.43
2024-04-23T16:36:39.806Z,7.00
2024-04-23T16:39:07.285Z,6.68
2024-04-23T16:41:34.938Z,7.45
2024-04-23T16:44:01.650Z,7.68
2024-04-23T16:46:29.064Z,8.20
2024-04-23T16:48:55.739Z,8.60
2024-04-23T16:51:22.506Z,8.98
2024-04-23T16:53:49.275Z,7.68
2024-04-23T16:56:19.020Z,8.13
2024-04-23T16:58:45.833Z,7.43
2024-04-23T17:01:12.605Z,6.17
2024-04-23T17:03:40.022Z,8.10
2024-04-23T17:06:25.291Z,6.20
2024-04-23T17:08:52.004Z,6.68
2024-04-23T17:11:18.792Z,6.30
2024-04-23T17:13:45.696Z,7.80
2024-04-23T17:16:16.394Z,7.07
2024-04-23T17:18:43.430Z,6.95
2024-04-23T17:21:17.209Z,8.27
2024-04-23T17:23:44.683Z,7.28
2024-04-23T17:26:12.215Z,7.87
2024-04-23T17:28:39.042Z,10.52
2024-04-23T17:31:09.165Z,13.35
2024-04-23T17:33:36.162Z,7.75
2024-04-23T17:36:03.151Z,7.22
2024-04-23T17:38:29.858Z,6.50
2024-04-23T17:40:56.667Z,6.63
2024-04-23T17:43:23.793Z,7.65
2024-04-23T17:45:50.487Z,7.28
2024-04-23T17:48:17.337Z,7.75
2024-04-23T17:50:44.106Z,6.90
2024-04-23T17:53:10.920Z,7.65
2024-04-23T17:55:37.652Z,7.57
2024-04-23T17:58:04.584Z,7.65
2024-04-23T18:00:31.458Z,7.80
2024-04-23T18:02:58.300Z,9.00
2024-04-23T18:05:25.069Z,7.85
2024-04-23T18:07:52.297Z,7.05
2024-04-23T18:10:19.188Z,7.15
2024-04-23T18:12:47.158Z,7.75
2024-04-23T18:15:14.033Z,7.63
2024-04-23T18:17:42.463Z,7.70
2024-04-23T18:20:09.713Z,7.60
2024-04-23T18:22:37.260Z,7.05
2024-04-23T18:25:04.562Z,7.93
2024-04-23T18:27:31.437Z,8.13
2024-04-23T18:29:58.130Z,6.90
2024-04-23T18:32:25.224Z,8.18
2024-04-23T18:34:52.078Z,9.43
2024-04-23T18:37:18.755Z,8.15
2024-04-23T18:39:45.544Z,9.67
2024-04-23T18:42:13.520Z,7.95
2024-04-23T18:44:40.623Z,10.07
2024-04-23T18:47:07.424Z,10.35
2024-04-23T18:49:34.175Z,9.05
2024-04-23T18:52:00.877Z,11.07
2024-04-23T18:54:27.658Z,9.95
2024-04-23T18:56:55.488Z,9.52
2024-04-23T18:59:22.268Z,7.35
2024-04-23T19:01:49.248Z,8.15
2024-04-23T19:04:16.079Z,7.87
2024-04-23T19:06:42.821Z,8.02
2024-04-23T19:09:09.592Z,7.45
2024-04-23T19:11:36.473Z,6.90
2024-04-23T19:14:11.257Z,8.98
2024-04-23T19:16:44.257Z,9.33
2024-04-23T19:19:11.462Z,9.50
2024-04-23T19:21:38.399Z,8.77
2024-04-23T19:24:05.950Z,8.68
2024-04-23T19:26:32.671Z,8.45
2024-04-23T19:28:59.477Z,8.13
2024-04-23T19:31:26.327Z,7.93
2024-04-23T19:33:53.084Z,6.65
2024-04-23T19:36:20.200Z,7.30
2024-04-23T19:38:46.942Z,8.60
2024-04-23T19:41:18.253Z,8.33
2024-04-23T19:43:52.410Z,12.82
2024-04-23T19:46:21.665Z,10.75
2024-04-23T19:48:50.375Z,7.55
2024-04-23T19:51:20.910Z,10.02
2024-04-23T19:53:51.063Z,8.57
2024-04-23T19:56:35.420Z,9.73
2024-04-23T19:59:04.243Z,9.43
2024-04-23T20:01:39.266Z,8.48
2024-04-23T20:04:06.506Z,8.10
2024-04-23T20:06:34.016Z,10.17
2024-04-23T20:09:02.119Z,9.02
2024-04-23T20:11:28.971Z,10.50
2024-04-23T20:13:55.834Z,9.82
2024-04-23T20:16:22.609Z,9.68
2024-04-23T20:18:52.515Z,10.60
2024-04-23T20:21:19.598Z,11.35
2024-04-23T20:23:51.127Z,13.05
2024-04-23T20:26:17.942Z,11.98
2024-04-23T20:28:45.589Z,12.90
2024-04-23T20:31:13.107Z,12.03
2024-04-23T20:33:42.219Z,10.90
2024-04-23T20:36:09.424Z,13.32
2024-04-23T20:38:36.076Z,11.65
2024-04-23T20:41:10.735Z,14.82
2024-04-23T20:43:37.779Z,14.77
2024-04-23T20:46:07.945Z,12.95
2024-04-23T20:48:35.318Z,13.05
2024-04-23T20:51:02.250Z,13.95
2024-04-23T20:53:29.181Z,13.85
2024-04-23T20:55:55.907Z,14.63
2024-04-23T20:58:22.620Z,13.63
2024-04-23T21:00:49.882Z,16.45
2024-04-23T21:03:16.798Z,13.50
2024-04-23T21:05:43.609Z,15.45
2024-04-23T21:08:12.191Z,14.13
2024-04-23T21:10:39.753Z,15.00
2024-04-23T21:13:06.566Z,16.05
2024-04-23T21:15:33.697Z,17.10
2024-04-23T21:18:00.907Z,17.67
2024-04-23T21:20:28.254Z,15.60
2024-04-23T21:22:55.264Z,17.77
2024-04-23T21:25:22.095Z,17.52
2024-04-23T21:27:48.923Z,18.63
2024-04-23T21:30:15.736Z,17.00
2024-04-23T21:32:42.610Z,18.20
2024-04-23T21:35:09.592Z,18.10
2024-04-23T21:37:36.356Z,18.02
2024-04-23T21:40:03.268Z,16.42
2024-04-23T21:42:35.829Z,16.45
2024-04-23T21:45:08.310Z,18.13
2024-04-23T21:47:35.504Z,15.68
2024-04-23T21:50:02.636Z,16.92
2024-04-23T21:52:39.178Z,15.00
2024-04-23T21:55:08.843Z,15.52
2024-04-23T21:57:35.787Z,14.77
2024-04-23T22:00:02.652Z,14.52
2024-04-23T22:02:29.516Z,16.77
2024-04-23T22:04:56.291Z,14.38
2024-04-23T22:07:23.075Z,14.85
2024-04-23T22:09:49.745Z,14.77
2024-04-23T22:12:16.515Z,18.15
2024-04-23T22:14:43.191Z,20.17
2024-04-23T22:17:11.734Z,20.77
2024-04-23T22:19:38.492Z,19.73
2024-04-23T22:22:05.418Z,20.10
2024-04-23T22:24:32.179Z,22.98
2024-04-23T22:26:58.860Z,22.73
2024-04-23T22:29:25.648Z,24.50
2024-04-23T22:31:52.444Z,25.25
2024-04-23T22:34:19.997Z,25.43
2024-04-23T22:36:46.696Z,21.17
2024-04-23T22:39:13.401Z,20.73
2024-04-23T22:41:40.222Z,19.00
2024-04-23T22:44:07.031Z,19.70
2024-04-23T22:46:33.809Z,18.40
2024-04-23T22:49:03.306Z,18.63
2024-04-23T22:51:30.090Z,19.05
2024-04-23T22:53:56.816Z,16.35
2024-04-23T22:56:23.530Z,15.93
2024-04-23T22:58:50.624Z,17.30
2024-04-23T23:01:17.432Z,15.23
2024-04-23T23:03:44.211Z,18.52
2024-04-23T23:06:11.092Z,15.07
2024-04-23T23:08:37.818Z,17.98
2024-04-23T23:11:04.721Z,14.93
2024-04-23T23:13:31.547Z,14.10
2024-04-23T23:15:58.394Z,16.60
2024-04-23T23:18:25.193Z,14.43
2024-04-23T23:20:52.003Z,14.65
2024-04-23T23:23:18.741Z,13.40
2024-04-23T23:25:45.510Z,15.57
2024-04-23T23:28:12.259Z,16.05
2024-04-23T23:30:38.958Z,15.85
2024-04-23T23:33:05.865Z,14.30
2024-04-23T23:35:32.623Z,12.87
2024-04-23T23:37:59.570Z,13.82
2024-04-23T23:40:26.896Z,13.20
2024-04-23T23:42:58.320Z,14.75
2024-04-23T23:45:28.283Z,14.88
2024-04-23T23:47:56.311Z,13.57
2024-04-23T23:50:23.314Z,11.57
2024-04-23T23:52:50.145Z,12.82
2024-04-23T23:55:16.853Z,13.80
2024-04-23T23:57:43.899Z,15.15
